createdAt,value
2024-01-08T00:00:08.264Z,1.69
2024-01-08T00:01:08.304Z,1.92
2024-01-08T00:02:08.249Z,1.47
2024-01-08T00:03:08.286Z,1.49
2024-01-08T00:04:08.220Z,1.75
2024-01-08T00:05:08.216Z,1.54
2024-01-08T00:06:08.266Z,1.92
2024-01-08T00:07:08.177Z,1.79
2024-01-08T00:08:08.192Z,2.01
2024-01-08T00:09:08.144Z,1.69
2024-01-08T00:10:08.146Z,1.82
2024-01-08T00:11:08.237Z,1.90
2024-01-08T00:12:08.146Z,1.92
2024-01-08T00:13:08.162Z,1.96
2024-01-08T00:14:08.147Z,2.16
2024-01-08T00:15:08.120Z,1.64
2024-01-08T00:16:08.095Z,1.91
2024-01-08T00:17:08.103Z,2.16
2024-01-08T00:18:08.232Z,1.74
2024-01-08T00:19:08.149Z,1.86
2024-01-08T00:20:08.205Z,1.91
2024-01-08T00:21:08.268Z,2.15
2024-01-08T00:22:08.258Z,1.80
2024-01-08T00:23:08.313Z,2.03
2024-01-08T00:24:08.275Z,1.90
2024-01-08T00:25:08.314Z,1.88
2024-01-08T00:26:08.326Z,1.82
2024-01-08T00:27:08.322Z,2.07
2024-01-08T00:28:08.360Z,2.05
2024-01-08T00:29:08.441Z,2.43
2024-01-08T00:30:08.567Z,2.01
2024-01-08T00:31:08.546Z,1.82
2024-01-08T00:32:08.557Z,1.63
2024-01-08T00:33:08.649Z,1.76
2024-01-08T00:34:08.699Z,3.08
2024-01-08T00:35:08.653Z,2.52
2024-01-08T00:36:08.630Z,2.33
2024-01-08T00:37:08.700Z,1.75
2024-01-08T00:38:08.788Z,2.14
2024-01-08T00:39:08.807Z,2.10
2024-01-08T00:40:08.856Z,1.79
2024-01-08T00:41:08.901Z,2.36
2024-01-08T00:42:08.950Z,2.28
2024-01-08T00:43:09.280Z,2.44
2024-01-08T00:44:09.099Z,2.08
2024-01-08T00:45:09.322Z,2.17
2024-01-08T00:46:09.175Z,2.49
2024-01-08T00:47:09.236Z,2.12
2024-01-08T00:48:09.459Z,2.96
2024-01-08T00:49:09.298Z,2.06
2024-01-08T00:50:09.316Z,2.40
2024-01-08T00:51:09.279Z,2.17
2024-01-08T00:52:09.294Z,2.69
2024-01-08T00:53:09.352Z,2.59
2024-01-08T00:54:09.295Z,2.51
2024-01-08T00:55:09.309Z,2.33
2024-01-08T00:56:09.319Z,2.42
2024-01-08T00:57:09.311Z,2.40
2024-01-08T00:58:09.868Z,2.22
2024-01-08T00:59:09.342Z,2.88
2024-01-08T01:00:09.272Z,2.38
2024-01-08T01:01:09.309Z,2.03
2024-01-08T01:02:09.285Z,1.89
2024-01-08T01:03:09.377Z,2.55
2024-01-08T01:04:09.331Z,2.45
2024-01-08T01:05:09.392Z,2.30
2024-01-08T01:06:09.459Z,2.34
2024-01-08T01:07:09.290Z,2.45
2024-01-08T01:08:09.359Z,2.03
2024-01-08T01:09:09.305Z,2.33
2024-01-08T01:10:09.276Z,2.35
2024-01-08T01:11:09.348Z,2.22
2024-01-08T01:12:09.289Z,2.48
2024-01-08T01:13:09.272Z,2.53
2024-01-08T01:14:09.338Z,2.32
2024-01-08T01:15:09.277Z,2.72
2024-01-08T01:16:09.275Z,2.34
2024-01-08T01:17:09.299Z,2.33
2024-01-08T01:18:09.520Z,2.03
2024-01-08T01:19:09.492Z,2.50
2024-01-08T01:20:09.297Z,2.62
2024-01-08T01:21:09.221Z,2.22
2024-01-08T01:22:09.223Z,2.59
2024-01-08T01:23:09.252Z,1.97
2024-01-08T01:24:09.196Z,2.05
2024-01-08T01:25:09.186Z,1.99
2024-01-08T01:26:09.187Z,2.06
2024-01-08T01:27:09.158Z,2.31
2024-01-08T01:28:09.154Z,2.46
2024-01-08T01:29:09.160Z,2.19
2024-01-08T01:30:09.134Z,2.18
2024-01-08T01:31:09.126Z,2.25
2024-01-08T01:32:09.145Z,2.14
2024-01-08T01:33:09.203Z,2.45
2024-01-08T01:34:09.127Z,2.22
2024-01-08T01:35:09.122Z,2.35
2024-01-08T01:36:09.097Z,2.10
2024-01-08T01:37:09.063Z,2.26
2024-01-08T01:38:09.103Z,2.32
2024-01-08T01:39:09.044Z,2.42
2024-01-08T01:40:09.028Z,2.71
2024-01-08T01:41:09.083Z,2.19
2024-01-08T01:42:08.999Z,2.42
2024-01-08T01:43:09.011Z,2.00
2024-01-08T01:44:09.001Z,2.33
2024-01-08T01:45:08.976Z,2.25
2024-01-08T01:46:08.975Z,2.44
2024-01-08T01:47:09.001Z,2.26
2024-01-08T01:48:09.040Z,2.13
2024-01-08T01:49:08.993Z,2.83
2024-01-08T01:50:08.962Z,2.47
2024-01-08T01:51:08.926Z,2.69
2024-01-08T01:52:08.949Z,2.55
2024-01-08T01:53:09.045Z,2.71
2024-01-08T01:54:09.050Z,2.67
2024-01-08T01:55:09.074Z,2.98
2024-01-08T01:56:09.103Z,2.07
2024-01-08T01:57:09.073Z,2.35
2024-01-08T01:58:09.144Z,2.60
2024-01-08T01:59:09.268Z,2.38
2024-01-08T02:00:09.182Z,2.76
2024-01-08T02:01:09.252Z,3.04
2024-01-08T02:02:09.262Z,2.92
2024-01-08T02:03:09.302Z,3.20
2024-01-08T02:04:09.624Z,2.89
2024-01-08T02:05:09.364Z,2.60
2024-01-08T02:06:09.572Z,3.66
2024-01-08T02:07:09.348Z,2.96
2024-01-08T02:08:09.413Z,3.14
2024-01-08T02:09:09.462Z,2.98
2024-01-08T02:10:09.459Z,3.09
2024-01-08T02:11:09.562Z,3.24
2024-01-08T02:12:09.582Z,2.74
2024-01-08T02:13:09.594Z,2.98
2024-01-08T02:14:09.614Z,2.84
2024-01-08T02:15:09.574Z,2.73
2024-01-08T02:16:09.604Z,2.35
2024-01-08T02:17:09.622Z,2.76
2024-01-08T02:18:09.670Z,3.57
2024-01-08T02:19:09.610Z,3.16
2024-01-08T02:20:09.655Z,2.95
2024-01-08T02:21:09.570Z,2.91
2024-01-08T02:22:09.554Z,2.96
2024-01-08T02:23:09.594Z,3.29
2024-01-08T02:24:09.544Z,2.97
2024-01-08T02:25:09.537Z,2.79
2024-01-08T02:26:09.596Z,2.85
2024-01-08T02:27:09.499Z,2.94
2024-01-08T02:28:09.505Z,2.87
2024-01-08T02:29:09.551Z,2.85
2024-01-08T02:30:09.568Z,3.16
2024-01-08T02:31:09.618Z,2.66
2024-01-08T02:32:09.614Z,2.81
2024-01-08T02:33:09.623Z,3.24
2024-01-08T02:34:09.710Z,3.34
2024-01-08T02:35:09.744Z,3.62
2024-01-08T02:36:09.690Z,3.54
2024-01-08T02:37:09.710Z,3.24
2024-01-08T02:38:09.718Z,3.28
2024-01-08T02:39:09.665Z,3.47
2024-01-08T02:40:09.652Z,3.17
2024-01-08T02:41:09.737Z,3.14
2024-01-08T02:42:09.622Z,2.94
2024-01-08T02:43:10.372Z,3.07
2024-01-08T02:44:09.674Z,3.27
2024-01-08T02:45:09.622Z,2.85
2024-01-08T02:46:09.581Z,3.10
2024-01-08T02:47:09.599Z,3.28
2024-01-08T02:48:10.330Z,3.62
2024-01-08T02:49:09.563Z,2.93
2024-01-08T02:50:09.577Z,2.72
2024-01-08T02:51:09.584Z,3.00
2024-01-08T02:52:09.577Z,2.68
2024-01-08T02:53:09.679Z,3.09
2024-01-08T02:54:09.590Z,3.26
2024-01-08T02:55:09.580Z,2.94
2024-01-08T02:56:09.609Z,2.97
2024-01-08T02:57:09.600Z,3.10
2024-01-08T02:58:09.671Z,3.48
2024-01-08T02:59:09.760Z,3.57
2024-01-08T03:00:09.698Z,3.09
2024-01-08T03:01:09.777Z,3.40
2024-01-08T03:02:09.784Z,3.79
2024-01-08T03:03:09.793Z,4.10
2024-01-08T03:04:09.913Z,3.18
2024-01-08T03:05:09.862Z,3.51
2024-01-08T03:06:09.863Z,3.76
2024-01-08T03:07:09.828Z,3.44
2024-01-08T03:08:09.860Z,3.27
2024-01-08T03:09:09.817Z,3.53
2024-01-08T03:10:09.820Z,3.27
2024-01-08T03:11:09.872Z,4.51
2024-01-08T03:12:09.822Z,6.47
2024-01-08T03:13:09.831Z,5.12
2024-01-08T03:14:09.872Z,5.58
2024-01-08T03:15:09.846Z,4.70
2024-01-08T03:16:09.879Z,3.71
2024-01-08T03:17:09.898Z,3.08
2024-01-08T03:18:10.149Z,3.60
2024-01-08T03:19:09.932Z,3.58
2024-01-08T03:20:10.269Z,3.95
2024-01-08T03:21:09.908Z,3.70
2024-01-08T03:22:09.954Z,3.79
2024-01-08T03:23:09.988Z,3.98
2024-01-08T03:24:09.973Z,3.94
2024-01-08T03:25:09.936Z,4.27
2024-01-08T03:26:10.057Z,3.71
2024-01-08T03:27:09.954Z,3.77
2024-01-08T03:28:10.403Z,4.28
2024-01-08T03:29:09.988Z,3.81
2024-01-08T03:30:09.977Z,3.80
2024-01-08T03:31:09.980Z,4.13
2024-01-08T03:32:10.022Z,4.07
2024-01-08T03:33:11.127Z,4.08
2024-01-08T03:34:10.019Z,3.87
2024-01-08T03:35:10.041Z,3.80
2024-01-08T03:36:10.075Z,4.24
2024-01-08T03:37:10.072Z,4.21
2024-01-08T03:38:12.206Z,4.42
2024-01-08T03:39:10.094Z,3.99
2024-01-08T03:40:10.107Z,3.69
2024-01-08T03:41:10.135Z,3.73
2024-01-08T03:42:10.135Z,4.22
2024-01-08T03:43:20.583Z,4.21
2024-01-08T03:44:10.163Z,4.10
2024-01-08T03:45:10.118Z,3.65
2024-01-08T03:46:10.128Z,4.03
2024-01-08T03:47:10.131Z,4.64
2024-01-08T03:52:10.117Z,4.13
2024-01-08T03:53:10.127Z,4.60
2024-01-08T03:54:10.293Z,4.33
2024-01-08T03:55:10.059Z,4.25
2024-01-08T03:56:10.104Z,4.48
2024-01-08T03:57:10.070Z,4.19
2024-01-08T03:58:10.076Z,4.79
2024-01-08T03:59:10.129Z,4.09
2024-01-08T04:00:10.087Z,4.12
2024-01-08T04:01:10.095Z,4.15
2024-01-08T04:02:10.120Z,4.48
2024-01-08T04:03:10.230Z,4.37
2024-01-08T04:04:10.094Z,4.20
2024-01-08T04:05:10.259Z,4.06
2024-01-08T04:06:10.315Z,4.48
2024-01-08T04:07:10.151Z,4.35
2024-01-08T04:08:10.470Z,4.27
2024-01-08T04:09:10.161Z,4.45
2024-01-08T04:10:10.177Z,4.98
2024-01-08T04:11:10.222Z,4.41
2024-01-08T04:12:10.189Z,4.82
2024-01-08T04:13:10.201Z,4.86
2024-01-08T04:14:10.251Z,4.90
2024-01-08T04:15:10.211Z,4.08
2024-01-08T04:16:10.223Z,4.19
2024-01-08T04:17:10.248Z,4.39
2024-01-08T04:18:10.369Z,4.85
2024-01-08T04:19:10.346Z,4.07
2024-01-08T04:20:10.289Z,5.16
2024-01-08T04:21:10.227Z,4.88
2024-01-08T04:22:10.243Z,5.27
2024-01-08T04:23:10.266Z,4.80
2024-01-08T04:24:10.240Z,5.71
2024-01-08T04:25:10.243Z,6.22
2024-01-08T04:26:10.298Z,6.56
2024-01-08T04:27:10.264Z,4.07
2024-01-08T04:28:10.282Z,5.23
2024-01-08T04:29:10.307Z,6.54
2024-01-08T04:30:10.319Z,4.77
2024-01-08T04:31:10.321Z,5.29
2024-01-08T04:32:10.403Z,5.10
2024-01-08T04:33:10.454Z,6.15
2024-01-08T04:34:10.475Z,7.74
2024-01-08T04:35:10.493Z,8.49
2024-01-08T04:36:10.508Z,12.25
2024-01-08T04:37:10.518Z,6.90
2024-01-08T04:38:10.571Z,8.42
2024-01-08T04:39:10.546Z,42.21
2024-01-08T04:40:10.547Z,59.47
2024-01-08T04:41:10.606Z,20.26
2024-01-08T04:42:10.579Z,11.45
2024-01-08T04:43:10.617Z,5.78
2024-01-08T04:44:10.744Z,6.58
2024-01-08T04:45:10.601Z,6.18
2024-01-08T04:46:10.626Z,6.61
2024-01-08T04:47:10.672Z,5.93
2024-01-08T04:48:10.747Z,5.91
2024-01-08T04:49:10.808Z,5.79
2024-01-08T04:50:10.753Z,5.79
2024-01-08T04:51:10.714Z,6.00
2024-01-08T04:52:10.736Z,6.02
2024-01-08T04:53:10.739Z,5.95
2024-01-08T04:54:10.756Z,5.67
2024-01-08T04:55:10.755Z,5.75
2024-01-08T04:56:10.865Z,5.83
2024-01-08T04:57:10.783Z,6.21
2024-01-08T04:58:10.802Z,6.28
2024-01-08T04:59:10.845Z,5.74
2024-01-08T05:00:10.876Z,6.41
2024-01-08T05:01:10.973Z,6.09
2024-01-08T05:02:10.957Z,5.94
2024-01-08T05:03:10.961Z,6.29
2024-01-08T05:04:12.994Z,6.52
2024-01-08T05:05:10.999Z,6.53
2024-01-08T05:06:10.985Z,5.81
2024-01-08T05:07:11.029Z,5.99
2024-01-08T05:08:18.786Z,5.89
2024-01-08T05:09:18.710Z,6.46
2024-01-08T05:10:18.695Z,6.28
2024-01-08T05:11:18.691Z,6.55
2024-01-08T05:12:18.653Z,6.80
2024-01-08T05:13:18.626Z,5.82
2024-01-08T05:14:18.681Z,6.51
2024-01-08T05:15:18.656Z,6.62
2024-01-08T05:16:18.572Z,7.04
2024-01-08T05:17:19.893Z,6.87
2024-01-08T05:18:18.696Z,6.46
2024-01-08T05:19:18.564Z,5.96
2024-01-08T05:20:18.525Z,7.37
2024-01-08T05:21:18.524Z,6.06
2024-01-08T05:22:18.562Z,6.40
2024-01-08T05:23:18.691Z,7.31
2024-01-08T05:24:18.614Z,7.40
2024-01-08T05:25:18.590Z,6.41
2024-01-08T05:26:18.606Z,6.29
2024-01-08T05:27:18.575Z,7.16
2024-01-08T05:28:18.623Z,6.61
2024-01-08T05:29:18.708Z,5.76
2024-01-08T05:30:18.625Z,6.56
2024-01-08T05:31:19.282Z,7.10
2024-01-08T05:32:18.631Z,5.77
2024-01-08T05:34:18.604Z,6.38
2024-01-08T05:35:18.580Z,6.24
2024-01-08T05:36:18.555Z,5.83
2024-01-08T05:37:18.528Z,7.98
2024-01-08T05:38:18.570Z,7.19
2024-01-08T05:39:18.499Z,9.80
2024-01-08T05:40:18.440Z,8.37
2024-01-08T05:41:20.218Z,7.25
2024-01-08T05:42:18.411Z,7.23
2024-01-08T05:43:18.419Z,7.32
2024-01-08T05:44:18.414Z,7.14
2024-01-08T05:45:18.443Z,7.25
2024-01-08T05:46:18.447Z,6.65
2024-01-08T05:47:18.586Z,7.44
2024-01-08T05:48:18.695Z,8.71
2024-01-08T05:49:18.567Z,8.88
2024-01-08T05:50:18.664Z,7.46
2024-01-08T05:51:18.580Z,8.49
2024-01-08T05:52:18.600Z,7.75
2024-01-08T05:53:18.614Z,7.29
2024-01-08T05:54:18.624Z,8.13
2024-01-08T05:55:18.688Z,7.60
2024-01-08T05:56:18.742Z,8.04
2024-01-08T05:57:18.722Z,8.10
2024-01-08T05:58:18.752Z,7.42
2024-01-08T05:59:18.810Z,8.50
2024-01-08T06:00:18.794Z,10.07
2024-01-08T06:01:18.886Z,9.62
2024-01-08T06:02:18.916Z,9.23
2024-01-08T06:03:18.922Z,9.27
2024-01-08T06:04:18.897Z,9.70
2024-01-08T06:05:19.008Z,9.31
2024-01-08T06:06:18.914Z,8.96
2024-01-08T06:07:18.878Z,9.16
2024-01-08T06:08:18.868Z,9.09
2024-01-08T06:09:18.805Z,11.91
2024-01-08T06:10:18.805Z,10.54
2024-01-08T06:11:18.801Z,9.47
2024-01-08T06:12:18.746Z,8.89
2024-01-08T06:13:18.712Z,9.49
2024-01-08T06:14:18.771Z,9.16
2024-01-08T06:15:18.702Z,9.16
2024-01-08T06:16:18.707Z,9.40
2024-01-08T06:17:18.680Z,10.20
2024-01-08T06:18:18.717Z,10.16
2024-01-08T06:19:18.707Z,9.46
2024-01-08T06:20:18.639Z,9.77
2024-01-08T06:21:18.624Z,9.73
2024-01-08T06:22:18.613Z,9.83
2024-01-08T06:23:18.637Z,8.86
2024-01-08T06:24:18.561Z,9.45
2024-01-08T06:25:18.552Z,9.77
2024-01-08T06:26:18.662Z,10.69
2024-01-08T06:27:18.540Z,10.45
2024-01-08T06:28:18.569Z,10.48
2024-01-08T06:29:18.537Z,10.23
2024-01-08T06:30:18.566Z,10.40
2024-01-08T06:31:18.484Z,11.61
2024-01-08T06:32:18.523Z,10.57
2024-01-08T06:33:18.566Z,10.66
2024-01-08T06:34:18.527Z,11.17
2024-01-08T06:35:18.537Z,10.87
2024-01-08T06:36:18.454Z,11.12
2024-01-08T06:37:18.477Z,11.09
2024-01-08T06:38:19.317Z,10.98
2024-01-08T06:39:18.403Z,11.04
2024-01-08T06:40:20.613Z,10.74
2024-01-08T06:41:18.522Z,10.99
2024-01-08T06:42:18.440Z,11.84
2024-01-08T06:43:18.429Z,10.84
2024-01-08T06:44:18.435Z,11.65
2024-01-08T06:45:18.417Z,10.90
2024-01-08T06:46:20.159Z,11.28
2024-01-08T06:47:18.488Z,11.72
2024-01-08T06:48:18.496Z,10.87
2024-01-08T06:49:18.491Z,10.80
2024-01-08T06:50:18.383Z,12.01
2024-01-08T06:51:18.362Z,11.01
2024-01-08T06:52:18.295Z,10.49
2024-01-08T06:53:18.335Z,11.47
2024-01-08T06:54:18.238Z,11.15
2024-01-08T06:55:18.263Z,11.84
2024-01-08T06:56:18.409Z,11.68
2024-01-08T06:57:18.284Z,12.10
2024-01-08T06:58:18.306Z,11.67
2024-01-08T06:59:18.367Z,13.25
2024-01-08T07:00:18.358Z,13.46
2024-01-08T07:01:18.441Z,12.74
2024-01-08T07:02:18.429Z,13.30
2024-01-08T07:03:18.632Z,14.66
2024-01-08T07:04:18.472Z,12.97
2024-01-08T07:05:18.689Z,13.21
2024-01-08T07:06:19.122Z,13.12
2024-01-08T07:07:18.598Z,13.26
2024-01-08T07:08:19.349Z,12.52
2024-01-08T07:09:18.766Z,11.83
2024-01-08T07:10:18.647Z,13.09
2024-01-08T07:11:18.753Z,12.46
2024-01-08T07:12:18.677Z,11.81
2024-01-08T07:13:18.736Z,12.60
2024-01-08T07:14:18.758Z,13.45
2024-01-08T07:15:19.298Z,11.91
2024-01-08T07:16:18.750Z,12.59
2024-01-08T07:17:18.908Z,12.65
2024-01-08T07:18:19.000Z,13.03
2024-01-08T07:19:18.888Z,14.60
2024-01-08T07:20:19.365Z,14.43
2024-01-08T07:21:18.741Z,14.11
2024-01-08T07:22:18.711Z,13.62
2024-01-08T07:23:18.697Z,12.80
2024-01-08T07:24:19.302Z,11.95
2024-01-08T07:25:18.615Z,12.79
2024-01-08T07:26:19.415Z,12.92
2024-01-08T07:27:18.542Z,13.52
2024-01-08T07:28:18.513Z,13.54
2024-01-08T07:29:18.510Z,13.17
2024-01-08T07:30:18.554Z,12.17
2024-01-08T07:31:18.441Z,13.06
2024-01-08T07:32:18.541Z,11.78
2024-01-08T07:33:18.521Z,12.44
2024-01-08T07:34:18.440Z,12.99
2024-01-08T07:35:18.528Z,12.62
2024-01-08T07:36:19.429Z,12.84
2024-01-08T07:37:18.361Z,12.68
2024-01-08T07:38:18.809Z,13.18
2024-01-08T07:39:18.290Z,12.57
2024-01-08T07:40:18.294Z,13.62
2024-01-08T07:41:18.370Z,13.31
2024-01-08T07:42:18.373Z,12.84
2024-01-08T07:43:18.636Z,13.17
2024-01-08T07:44:18.385Z,12.68
2024-01-08T07:45:18.351Z,13.49
2024-01-08T07:46:18.379Z,12.43
2024-01-08T07:47:18.356Z,12.85
2024-01-08T07:48:18.434Z,13.07
2024-01-08T07:49:18.382Z,13.04
2024-01-08T07:50:18.282Z,13.13
2024-01-08T07:51:18.216Z,13.06
2024-01-08T07:52:20.716Z,13.07
2024-01-08T07:53:18.214Z,13.12
2024-01-08T07:54:18.080Z,13.05
2024-01-08T07:55:18.043Z,12.97
2024-01-08T07:56:18.042Z,13.15
2024-01-08T07:57:18.016Z,12.77
2024-01-08T07:58:21.936Z,12.54
2024-01-08T07:59:18.995Z,13.19
2024-01-08T08:00:17.961Z,13.42
2024-01-08T08:01:17.882Z,12.79
2024-01-08T08:02:17.936Z,13.98
2024-01-08T08:03:18.392Z,12.51
2024-01-08T08:04:17.841Z,11.80
2024-01-08T08:05:17.933Z,12.51
2024-01-08T08:06:17.824Z,13.48
2024-01-08T08:07:17.693Z,13.01
2024-01-08T08:08:17.908Z,12.73
2024-01-08T08:09:17.634Z,13.61
2024-01-08T08:10:18.699Z,13.60
2024-01-08T08:11:17.621Z,13.70
2024-01-08T08:12:17.822Z,14.00
2024-01-08T08:13:17.589Z,12.42
2024-01-08T08:14:17.626Z,12.59
2024-01-08T08:15:18.305Z,13.53
2024-01-08T08:16:18.377Z,13.62
2024-01-08T08:17:17.644Z,13.20
2024-01-08T08:18:17.779Z,13.47
2024-01-08T08:19:17.597Z,13.45
2024-01-08T08:20:17.802Z,12.82
2024-01-08T08:21:17.596Z,13.21
2024-01-08T08:22:17.575Z,12.43
2024-01-08T08:23:17.623Z,13.77
2024-01-08T08:24:17.578Z,13.23
2024-01-08T08:25:17.578Z,13.02
2024-01-08T08:26:19.969Z,13.72
2024-01-08T08:27:17.563Z,12.66
2024-01-08T08:28:17.576Z,14.18
2024-01-08T08:29:17.524Z,13.05
2024-01-08T08:30:17.526Z,14.32
2024-01-08T08:31:17.448Z,14.25
2024-01-08T08:32:17.454Z,13.30
2024-01-08T08:33:17.748Z,12.81
2024-01-08T08:34:17.438Z,12.28
2024-01-08T08:35:17.498Z,12.72
2024-01-08T08:36:18.094Z,12.61
2024-01-08T08:37:17.291Z,13.54
2024-01-08T08:38:19.867Z,13.12
2024-01-08T08:39:17.451Z,12.82
2024-01-08T08:40:17.464Z,14.14
2024-01-08T08:41:17.477Z,12.88
2024-01-08T08:42:17.480Z,12.86
2024-01-08T08:43:17.449Z,13.61
2024-01-08T08:44:19.556Z,12.43
2024-01-08T08:45:17.452Z,13.42
2024-01-08T08:46:17.438Z,13.87
2024-01-08T08:47:17.629Z,13.61
2024-01-08T08:48:17.521Z,14.38
2024-01-08T08:49:17.505Z,13.87
2024-01-08T08:50:17.789Z,14.02
2024-01-08T08:51:17.546Z,13.29
2024-01-08T08:52:17.591Z,12.83
2024-01-08T08:53:17.664Z,12.25
2024-01-08T08:54:17.587Z,12.56
2024-01-08T08:55:17.782Z,13.69
2024-01-08T08:56:17.682Z,12.59
2024-01-08T08:57:17.593Z,13.21
2024-01-08T08:58:17.565Z,12.73
2024-01-08T08:59:17.605Z,13.17
2024-01-08T09:00:20.707Z,14.02
2024-01-08T09:01:17.524Z,13.75
2024-01-08T09:02:17.486Z,12.80
2024-01-08T09:03:17.437Z,13.93
2024-01-08T09:04:17.422Z,12.65
2024-01-08T09:05:26.005Z,13.69
2024-01-08T09:06:18.362Z,13.46
2024-01-08T09:07:17.373Z,13.40
2024-01-08T09:08:17.259Z,14.15
2024-01-08T09:09:17.208Z,13.78
2024-01-08T09:10:17.156Z,15.70
2024-01-08T09:11:17.165Z,14.21
2024-01-08T09:12:17.045Z,13.92
2024-01-08T09:13:17.029Z,15.05
2024-01-08T09:14:17.070Z,12.47
2024-01-08T09:15:16.909Z,12.57
2024-01-08T09:16:16.874Z,13.20
2024-01-08T09:17:16.888Z,13.38
2024-01-08T09:18:16.940Z,14.03
2024-01-08T09:19:16.902Z,12.94
2024-01-08T09:20:16.732Z,13.95
2024-01-08T09:21:16.660Z,13.59
2024-01-08T09:22:16.688Z,12.99
2024-01-08T09:23:16.723Z,14.28
2024-01-08T09:24:16.650Z,13.60
2024-01-08T09:25:16.631Z,13.04
2024-01-08T09:26:16.617Z,12.23
2024-01-08T09:27:16.514Z,12.14
2024-01-08T09:28:16.459Z,10.99
2024-01-08T09:29:16.426Z,13.09
2024-01-08T09:30:19.804Z,11.25
2024-01-08T09:31:16.309Z,11.33
2024-01-08T09:32:16.829Z,12.37
2024-01-08T09:33:16.327Z,11.67
2024-01-08T09:34:16.876Z,11.39
2024-01-08T09:35:16.252Z,11.41
2024-01-08T09:36:16.657Z,10.82
2024-01-08T09:37:16.183Z,11.80
2024-01-08T09:38:16.112Z,13.03
2024-01-08T09:39:16.072Z,14.12
2024-01-08T09:40:16.015Z,13.75
2024-01-08T09:41:23.379Z,13.90
2024-01-08T09:42:16.997Z,12.32
2024-01-08T09:43:16.089Z,12.18
2024-01-08T09:44:15.948Z,11.29
2024-01-08T09:45:15.769Z,11.62
2024-01-08T09:46:15.739Z,11.12
2024-01-08T09:47:15.615Z,10.77
2024-01-08T09:48:16.835Z,11.38
2024-01-08T09:49:15.453Z,10.38
2024-01-08T09:50:15.482Z,10.30
2024-01-08T09:51:15.311Z,10.50
2024-01-08T09:52:15.225Z,10.33
2024-01-08T09:53:15.203Z,10.62
2024-01-08T09:54:15.163Z,10.15
2024-01-08T09:55:15.036Z,10.27
2024-01-08T09:56:15.034Z,10.11
2024-01-08T09:57:14.931Z,10.40
2024-01-08T09:58:14.940Z,9.84
2024-01-08T09:59:14.987Z,9.95
2024-01-08T10:00:14.737Z,9.81
2024-01-08T10:01:14.766Z,9.14
2024-01-08T10:02:14.679Z,10.14
2024-01-08T10:03:14.539Z,9.81
2024-01-08T10:04:14.509Z,9.06
2024-01-08T10:05:14.501Z,8.47
2024-01-08T10:06:14.457Z,9.36
2024-01-08T10:07:14.274Z,9.04
2024-01-08T10:08:14.279Z,9.29
2024-01-08T10:09:14.232Z,8.21
2024-01-08T10:10:14.216Z,9.71
2024-01-08T10:11:14.171Z,9.42
2024-01-08T10:12:14.127Z,9.49
2024-01-08T10:13:14.080Z,10.33
2024-01-08T10:14:14.054Z,10.92
2024-01-08T10:15:14.182Z,10.32
2024-01-08T10:16:13.948Z,9.12
2024-01-08T10:17:14.025Z,10.30
2024-01-08T10:18:14.066Z,11.73
2024-01-08T10:19:14.129Z,8.90
2024-01-08T10:20:14.552Z,14.66
2024-01-08T10:21:13.970Z,13.91
2024-01-08T10:22:13.897Z,10.23
2024-01-08T10:23:13.846Z,12.51
2024-01-08T10:24:14.192Z,8.57
2024-01-08T10:25:13.712Z,12.84
2024-01-08T10:26:13.828Z,10.10
2024-01-08T10:27:13.866Z,8.85
2024-01-08T10:28:13.567Z,8.81
2024-01-08T10:29:13.530Z,8.77
2024-01-08T10:30:14.382Z,9.53
2024-01-08T10:31:13.454Z,9.08
2024-01-08T10:32:13.405Z,9.33
2024-01-08T10:33:13.520Z,9.61
2024-01-08T10:34:13.314Z,9.33
2024-01-08T10:35:13.375Z,7.90
2024-01-08T10:36:13.204Z,10.82
2024-01-08T10:37:13.127Z,10.14
2024-01-08T10:38:13.109Z,10.69
2024-01-08T10:39:13.054Z,11.04
2024-01-08T10:40:13.008Z,10.89
2024-01-08T10:41:13.041Z,10.02
2024-01-08T10:42:12.944Z,11.81
2024-01-08T10:43:12.862Z,10.32
2024-01-08T10:44:12.786Z,8.92
2024-01-08T10:45:12.758Z,9.41
2024-01-08T10:46:13.387Z,9.50
2024-01-08T10:47:15.085Z,9.87
2024-01-08T10:48:12.669Z,9.49
2024-01-08T10:49:12.438Z,8.61
2024-01-08T10:50:12.305Z,9.53
2024-01-08T10:51:12.263Z,9.14
2024-01-08T10:52:12.246Z,10.61
2024-01-08T10:53:12.170Z,8.91
2024-01-08T10:54:12.030Z,9.26
2024-01-08T10:55:11.902Z,9.73
2024-01-08T10:56:11.838Z,9.15
2024-01-08T10:57:11.776Z,10.15
2024-01-08T10:58:11.662Z,9.41
2024-01-08T10:59:11.739Z,9.90
2024-01-08T11:00:11.689Z,9.76
2024-01-08T11:01:11.482Z,10.65
2024-01-08T11:02:11.501Z,9.94
2024-01-08T11:03:11.407Z,9.49
2024-01-08T11:04:11.258Z,9.64
2024-01-08T11:05:11.339Z,10.65
2024-01-08T11:06:11.992Z,9.85
2024-01-08T11:07:11.031Z,9.18
2024-01-08T11:08:11.018Z,9.90
2024-01-08T11:09:10.898Z,8.84
2024-01-08T11:10:11.178Z,9.41
2024-01-08T11:11:10.770Z,9.86
2024-01-08T11:12:10.660Z,9.33
2024-01-08T11:13:10.569Z,9.35
2024-01-08T11:14:10.550Z,8.98
2024-01-08T11:15:10.560Z,9.57
2024-01-08T11:16:10.516Z,9.96
2024-01-08T11:17:10.353Z,9.30
2024-01-08T11:18:10.364Z,8.95
2024-01-08T11:19:10.383Z,9.40
2024-01-08T11:20:10.264Z,8.87
2024-01-08T11:21:11.831Z,9.20
2024-01-08T11:22:10.222Z,9.61
2024-01-08T11:23:10.153Z,9.46
2024-01-08T11:24:10.120Z,9.43
2024-01-08T11:25:10.131Z,8.84
2024-01-08T11:26:10.217Z,9.21
2024-01-08T11:27:10.002Z,9.06
2024-01-08T11:28:09.830Z,8.88
2024-01-08T11:29:09.912Z,10.16
2024-01-08T11:30:09.913Z,9.57
2024-01-08T11:31:09.731Z,9.31
2024-01-08T11:32:09.750Z,9.69
2024-01-08T11:33:09.747Z,10.89
2024-01-08T11:34:09.535Z,10.39
2024-01-08T11:35:12.072Z,10.47
2024-01-08T11:36:09.332Z,11.62
2024-01-08T11:37:09.229Z,10.03
2024-01-08T11:38:09.179Z,10.49
2024-01-08T11:39:09.055Z,10.23
2024-01-08T11:40:09.093Z,10.15
2024-01-08T11:41:09.864Z,10.65
2024-01-08T11:42:08.928Z,9.83
2024-01-08T11:43:08.794Z,10.06
2024-01-08T11:44:08.740Z,10.65
2024-01-08T11:45:08.637Z,10.45
2024-01-08T11:46:08.633Z,11.35
2024-01-08T11:47:10.531Z,10.49
2024-01-08T11:48:08.580Z,10.50
2024-01-08T11:49:08.439Z,10.72
2024-01-08T11:50:08.375Z,10.10
2024-01-08T11:51:08.173Z,10.98
2024-01-08T11:52:08.126Z,10.12
2024-01-08T11:53:10.549Z,10.83
2024-01-08T11:54:08.019Z,10.77
2024-01-08T11:55:07.925Z,11.08
2024-01-08T11:56:08.175Z,10.31
2024-01-08T11:57:07.816Z,13.55
2024-01-08T11:58:08.343Z,12.06
2024-01-08T11:59:07.787Z,11.68
2024-01-08T12:00:08.326Z,12.41
2024-01-08T12:01:07.648Z,12.78
2024-01-08T12:02:10.460Z,11.97
2024-01-08T12:03:07.579Z,11.62
2024-01-08T12:04:07.498Z,12.17
2024-01-08T12:05:07.518Z,11.32
2024-01-08T12:06:07.501Z,12.93
2024-01-08T12:07:07.250Z,11.30
2024-01-08T12:08:07.327Z,11.84
2024-01-08T12:09:08.896Z,12.83
2024-01-08T12:10:07.233Z,12.65
2024-01-08T12:11:08.108Z,12.40
2024-01-08T12:12:07.062Z,12.96
2024-01-08T12:13:07.104Z,12.37
2024-01-08T12:14:07.741Z,13.81
2024-01-08T12:15:06.983Z,13.59
2024-01-08T12:16:07.810Z,13.16
2024-01-08T12:17:07.229Z,14.19
2024-01-08T12:18:06.920Z,13.49
2024-01-08T12:19:07.173Z,13.77
2024-01-08T12:20:06.790Z,13.41
2024-01-08T12:21:06.822Z,12.00
2024-01-08T12:22:06.743Z,12.66
2024-01-08T12:23:06.713Z,13.51
2024-01-08T12:24:06.678Z,13.23
2024-01-08T12:25:06.703Z,12.98
2024-01-08T12:26:06.813Z,13.80
2024-01-08T12:27:07.322Z,13.90
2024-01-08T12:28:06.714Z,13.15
2024-01-08T12:30:06.815Z,13.99
2024-01-08T12:31:06.724Z,13.59
2024-01-08T12:32:06.779Z,14.78
2024-01-08T12:33:06.694Z,14.36
2024-01-08T12:34:06.622Z,15.09
2024-01-08T12:35:07.155Z,14.86
2024-01-08T12:36:06.501Z,14.28
2024-01-08T12:37:06.539Z,14.06
2024-01-08T12:38:06.372Z,13.65
2024-01-08T12:39:06.295Z,15.80
2024-01-08T12:40:06.335Z,15.84
2024-01-08T12:41:06.444Z,14.17
2024-01-08T12:42:06.149Z,15.19
2024-01-08T12:43:06.099Z,13.63
2024-01-08T12:44:06.034Z,14.01
2024-01-08T12:45:05.984Z,13.69
2024-01-08T12:46:05.990Z,13.20
2024-01-08T12:47:05.881Z,15.04
2024-01-08T12:48:05.838Z,14.61
2024-01-08T12:49:05.781Z,15.12
2024-01-08T12:50:05.788Z,14.96
2024-01-08T12:51:05.591Z,12.96
2024-01-08T12:52:08.595Z,13.20
2024-01-08T12:53:06.543Z,13.88
2024-01-08T12:54:05.446Z,13.61
2024-01-08T12:55:05.409Z,14.12
2024-01-08T12:56:05.386Z,13.54
2024-01-08T12:57:05.293Z,13.75
2024-01-08T12:58:05.265Z,14.57
2024-01-08T12:59:05.226Z,15.77
2024-01-08T13:00:05.248Z,14.94
2024-01-08T13:01:05.249Z,13.95
2024-01-08T13:02:05.257Z,14.66
2024-01-08T13:03:05.201Z,13.40
2024-01-08T13:12:05.653Z,16.00
2024-01-08T13:13:04.536Z,15.16
2024-01-08T13:14:04.531Z,15.86
2024-01-08T13:15:04.455Z,14.10
2024-01-08T13:16:04.448Z,14.00
2024-01-08T13:17:04.514Z,13.72
2024-01-08T13:18:04.456Z,14.34
2024-01-08T13:19:04.854Z,16.08
2024-01-08T13:20:13.590Z,15.93